sensor_id;sensor_type;location;lat;lon;timestamp;P1;durP1;ratioP1;P2;durP2;ratioP2
48891;SDS011;50130;52.150;5.236;2023-03-07T00:00:29;22.1;;;13.9;;
48891;SDS011;50130;52.150;5.236;2023-03-07T00:02:05;21.2;;;13.8;;
48891;SDS011;50130;52.150;5.236;2023-03-07T00:03:41;20.8;;;14.5;;
48891;SDS011;50130;52.150;5.236;2023-03-07T00:06:54;22.0;;;12.4;;
48891;SDS011;50130;52.150;5.236;2023-03-07T00:08:31;26.1;;;15.6;;
48891;SDS011;50130;52.150;5.236;2023-03-07T00:10:08;26.0;;;14.2;;
48891;SDS011;50130;52.150;5.236;2023-03-07T00:13:21;33.9;;;17.11;;
48891;SDS011;50130;52.150;5.236;2023-03-07T00:14:57;27.2;;;16.2;;
48891;SDS011;50130;52.150;5.236;2023-03-07T00:16:33;22.7;;;11.3;;
48891;SDS011;50130;52.150;5.236;2023-03-07T00:18:09;23.0;;;11.3;;
48891;SDS011;50130;52.150;5.236;2023-03-07T00:21:22;23.2;;;12.6;;
48891;SDS011;50130;52.150;5.236;2023-03-07T00:22:58;20.5;;;11.0;;
48891;SDS011;50130;52.150;5.236;2023-03-07T00:24:34;20.0;;;11.5;;
48891;SDS011;50130;52.150;5.236;2023-03-07T00:27:49;25.8;;;13.7;;
48891;SDS011;50130;52.150;5.236;2023-03-07T00:29:25;27.2;;;12.7;;
48891;SDS011;50130;52.150;5.236;2023-03-07T00:31:02;23.8;;;12.9;;
48891;SDS011;50130;52.150;5.236;2023-03-07T00:34:17;24.4;;;12.3;;
48891;SDS011;50130;52.150;5.236;2023-03-07T00:35:54;24.3;;;12.6;;
48891;SDS011;50130;52.150;5.236;2023-03-07T00:37:31;24.5;;;11.6;;
48891;SDS011;50130;52.150;5.236;2023-03-07T00:39:07;21.7;;;11.5;;
48891;SDS011;50130;52.150;5.236;2023-03-07T00:42:19;27.1;;;12.6;;
48891;SDS011;50130;52.150;5.236;2023-03-07T00:43:56;21.8;;;12.2;;
48891;SDS011;50130;52.150;5.236;2023-03-07T00:45:32;22.0;;;12.6;;
48891;SDS011;50130;52.150;5.236;2023-03-07T00:48:44;19.61;;;11.3;;
48891;SDS011;50130;52.150;5.236;2023-03-07T00:51:58;24.6;;;13.7;;
48891;SDS011;50130;52.150;5.236;2023-03-07T00:55:12;20.11;;;9.21;;
48891;SDS011;50130;52.150;5.236;2023-03-07T00:56:48;19.91;;;11.1;;
48891;SDS011;50130;52.150;5.236;2023-03-07T00:58:24;25.4;;;12.5;;
48891;SDS011;50130;52.150;5.236;2023-03-07T01:00:01;17.0;;;8.31;;
48891;SDS011;50130;52.150;5.236;2023-03-07T01:03:16;19.8;;;10.5;;
48891;SDS011;50130;52.150;5.236;2023-03-07T01:04:52;17.41;;;10.1;;
48891;SDS011;50130;52.150;5.236;2023-03-07T01:06:29;15.3;;;7.6;;
48891;SDS011;50130;52.150;5.236;2023-03-07T01:09:44;13.6;;;9.1;;
48891;SDS011;50130;52.150;5.236;2023-03-07T01:11:20;15.2;;;8.81;;
48891;SDS011;50130;52.150;5.236;2023-03-07T01:12:56;18.7;;;9.31;;
48891;SDS011;50130;52.150;5.236;2023-03-07T01:14:32;16.11;;;9.21;;
48891;SDS011;50130;52.150;5.236;2023-03-07T01:17:49;16.7;;;10.0;;
48891;SDS011;50130;52.150;5.236;2023-03-07T01:19:25;12.7;;;8.81;;
48891;SDS011;50130;52.150;5.236;2023-03-07T01:21:01;15.3;;;8.1;;
48891;SDS011;50130;52.150;5.236;2023-03-07T01:24:21;13.5;;;5.5;;
48891;SDS011;50130;52.150;5.236;2023-03-07T01:25:57;12.1;;;4.91;;
48891;SDS011;50130;52.150;5.236;2023-03-07T01:27:33;11.4;;;4.5;;
48891;SDS011;50130;52.150;5.236;2023-03-07T01:30:55;13.1;;;5.11;;
48891;SDS011;50130;52.150;5.236;2023-03-07T01:32:32;12.2;;;4.7;;
48891;SDS011;50130;52.150;5.236;2023-03-07T01:34:08;13.4;;;6.0;;
48891;SDS011;50130;52.150;5.236;2023-03-07T01:35:44;15.9;;;5.2;;
48891;SDS011;50130;52.150;5.236;2023-03-07T01:38:57;14.5;;;6.3;;
48891;SDS011;50130;52.150;5.236;2023-03-07T01:40:35;12.1;;;5.0;;
48891;SDS011;50130;52.150;5.236;2023-03-07T01:42:13;13.8;;;5.7;;
48891;SDS011;50130;52.150;5.236;2023-03-07T01:43:49;15.9;;;5.11;;
48891;SDS011;50130;52.150;5.236;2023-03-07T01:48:18;14.2;;;5.3;;
48891;SDS011;50130;52.150;5.236;2023-03-07T01:51:34;14.2;;;5.3;;
48891;SDS011;50130;52.150;5.236;2023-03-07T01:53:13;12.8;;;4.91;;
48891;SDS011;50130;52.150;5.236;2023-03-07T01:54:50;15.3;;;5.3;;
48891;SDS011;50130;52.150;5.236;2023-03-07T01:56:30;16.7;;;5.3;;
48891;SDS011;50130;52.150;5.236;2023-03-07T01:59:47;14.3;;;5.4;;
48891;SDS011;50130;52.150;5.236;2023-03-07T02:01:26;16.11;;;5.5;;
48891;SDS011;50130;52.150;5.236;2023-03-07T02:03:04;14.2;;;4.8;;
48891;SDS011;50130;52.150;5.236;2023-03-07T02:04:47;12.5;;;5.8;;
48891;SDS011;50130;52.150;5.236;2023-03-07T02:08:08;18.0;;;7.1;;
48891;SDS011;50130;52.150;5.236;2023-03-07T02:09:48;14.3;;;6.0;;
48891;SDS011;50130;52.150;5.236;2023-03-07T02:11:27;12.6;;;6.2;;
48891;SDS011;50130;52.150;5.236;2023-03-07T02:14:41;14.1;;;5.6;;
48891;SDS011;50130;52.150;5.236;2023-03-07T02:16:20;16.2;;;6.3;;
48891;SDS011;50130;52.150;5.236;2023-03-07T02:17:56;14.3;;;5.5;;
48891;SDS011;50130;52.150;5.236;2023-03-07T02:19:37;18.2;;;7.2;;
48891;SDS011;50130;52.150;5.236;2023-03-07T02:23:17;20.7;;;7.5;;
48891;SDS011;50130;52.150;5.236;2023-03-07T02:25:01;16.4;;;6.5;;
48891;SDS011;50130;52.150;5.236;2023-03-07T02:26:42;19.11;;;6.6;;
48891;SDS011;50130;52.150;5.236;2023-03-07T02:28:20;16.5;;;6.5;;
48891;SDS011;50130;52.150;5.236;2023-03-07T02:29:56;14.6;;;6.0;;
48891;SDS011;50130;52.150;5.236;2023-03-07T02:33:08;17.8;;;6.8;;
48891;SDS011;50130;52.150;5.236;2023-03-07T02:34:44;14.4;;;6.2;;
48891;SDS011;50130;52.150;5.236;2023-03-07T02:36:21;15.5;;;6.3;;
48891;SDS011;50130;52.150;5.236;2023-03-07T02:39:40;18.8;;;6.3;;
48891;SDS011;50130;52.150;5.236;2023-03-07T02:41:20;15.5;;;6.2;;
48891;SDS011;50130;52.150;5.236;2023-03-07T02:43:01;20.11;;;6.3;;
48891;SDS011;50130;52.150;5.236;2023-03-07T02:44:39;19.8;;;5.9;;
48891;SDS011;50130;52.150;5.236;2023-03-07T02:47:51;16.3;;;6.0;;
48891;SDS011;50130;52.150;5.236;2023-03-07T02:49:28;19.2;;;6.8;;
48891;SDS011;50130;52.150;5.236;2023-03-07T02:51:04;21.7;;;7.2;;
48891;SDS011;50130;52.150;5.236;2023-03-07T02:54:18;21.8;;;6.6;;
48891;SDS011;50130;52.150;5.236;2023-03-07T02:55:54;20.5;;;6.4;;
48891;SDS011;50130;52.150;5.236;2023-03-07T02:57:30;19.8;;;6.8;;
48891;SDS011;50130;52.150;5.236;2023-03-07T03:00:43;17.2;;;6.9;;
48891;SDS011;50130;52.150;5.236;2023-03-07T03:02:19;19.8;;;7.0;;
48891;SDS011;50130;52.150;5.236;2023-03-07T03:03:55;19.2;;;6.8;;
48891;SDS011;50130;52.150;5.236;2023-03-07T03:05:31;16.0;;;6.3;;
48891;SDS011;50130;52.150;5.236;2023-03-07T03:08:43;18.61;;;6.5;;
48891;SDS011;50130;52.150;5.236;2023-03-07T03:10:19;16.5;;;5.8;;
48891;SDS011;50130;52.150;5.236;2023-03-07T03:11:56;19.3;;;6.2;;
48891;SDS011;50130;52.150;5.236;2023-03-07T03:15:09;22.0;;;7.3;;
48891;SDS011;50130;52.150;5.236;2023-03-07T03:16:46;17.2;;;6.3;;
48891;SDS011;50130;52.150;5.236;2023-03-07T03:18:22;18.61;;;6.8;;
48891;SDS011;50130;52.150;5.236;2023-03-07T03:21:35;17.11;;;6.0;;
48891;SDS011;50130;52.150;5.236;2023-03-07T03:23:12;20.3;;;6.5;;
48891;SDS011;50130;52.150;5.236;2023-03-07T03:24:48;18.2;;;6.0;;
48891;SDS011;50130;52.150;5.236;2023-03-07T03:26:24;17.41;;;5.7;;
48891;SDS011;50130;52.150;5.236;2023-03-07T03:29:36;21.1;;;6.2;;
48891;SDS011;50130;52.150;5.236;2023-03-07T03:31:12;19.41;;;5.9;;
48891;SDS011;50130;52.150;5.236;2023-03-07T03:32:49;19.0;;;6.1;;
48891;SDS011;50130;52.150;5.236;2023-03-07T03:36:04;17.7;;;5.8;;
48891;SDS011;50130;52.150;5.236;2023-03-07T03:37:43;17.91;;;6.1;;
48891;SDS011;50130;52.150;5.236;2023-03-07T03:39:19;13.6;;;5.0;;
48891;SDS011;50130;52.150;5.236;2023-03-07T03:42:31;20.0;;;5.8;;
48891;SDS011;50130;52.150;5.236;2023-03-07T03:44:07;17.2;;;6.4;;
48891;SDS011;50130;52.150;5.236;2023-03-07T03:45:52;16.2;;;5.6;;
48891;SDS011;50130;52.150;5.236;2023-03-07T03:47:29;18.61;;;6.4;;
48891;SDS011;50130;52.150;5.236;2023-03-07T03:50:41;22.9;;;6.7;;
48891;SDS011;50130;52.150;5.236;2023-03-07T03:52:17;16.9;;;5.3;;
48891;SDS011;50130;52.150;5.236;2023-03-07T03:53:53;18.7;;;6.3;;
48891;SDS011;50130;52.150;5.236;2023-03-07T03:57:06;15.4;;;6.1;;
48891;SDS011;50130;52.150;5.236;2023-03-07T03:58:45;17.3;;;6.3;;
48891;SDS011;50130;52.150;5.236;2023-03-07T04:00:23;15.7;;;6.2;;
48891;SDS011;50130;52.150;5.236;2023-03-07T04:01:59;21.9;;;6.8;;
48891;SDS011;50130;52.150;5.236;2023-03-07T04:05:14;22.8;;;6.2;;
48891;SDS011;50130;52.150;5.236;2023-03-07T04:06:50;25.5;;;6.4;;
48891;SDS011;50130;52.150;5.236;2023-03-07T04:08:26;19.0;;;6.5;;
48891;SDS011;50130;52.150;5.236;2023-03-07T04:11:40;19.61;;;6.1;;
48891;SDS011;50130;52.150;5.236;2023-03-07T04:13:16;23.9;;;6.8;;
48891;SDS011;50130;52.150;5.236;2023-03-07T04:14:52;20.7;;;5.8;;
48891;SDS011;50130;52.150;5.236;2023-03-07T04:18:04;15.9;;;6.0;;
48891;SDS011;50130;52.150;5.236;2023-03-07T04:19:40;16.0;;;6.4;;
48891;SDS011;50130;52.150;5.236;2023-03-07T04:21:17;16.11;;;5.9;;
48891;SDS011;50130;52.150;5.236;2023-03-07T04:22:54;18.2;;;6.1;;
48891;SDS011;50130;52.150;5.236;2023-03-07T04:26:07;18.2;;;6.1;;
48891;SDS011;50130;52.150;5.236;2023-03-07T04:27:44;16.0;;;6.3;;
48891;SDS011;50130;52.150;5.236;2023-03-07T04:29:20;19.5;;;6.4;;
48891;SDS011;50130;52.150;5.236;2023-03-07T04:32:33;19.5;;;6.4;;
48891;SDS011;50130;52.150;5.236;2023-03-07T04:34:09;16.61;;;6.0;;
48891;SDS011;50130;52.150;5.236;2023-03-07T04:35:45;18.41;;;5.8;;
48891;SDS011;50130;52.150;5.236;2023-03-07T04:38:57;15.9;;;5.5;;
48891;SDS011;50130;52.150;5.236;2023-03-07T04:40:33;17.11;;;3.9;;
48891;SDS011;50130;52.150;5.236;2023-03-07T04:42:10;17.5;;;4.3;;
48891;SDS011;50130;52.150;5.236;2023-03-07T04:43:46;12.0;;;3.5;;
48891;SDS011;50130;52.150;5.236;2023-03-07T04:46:58;17.61;;;5.0;;
48891;SDS011;50130;52.150;5.236;2023-03-07T04:48:34;15.7;;;5.0;;
48891;SDS011;50130;52.150;5.236;2023-03-07T04:50:10;18.7;;;4.91;;
48891;SDS011;50130;52.150;5.236;2023-03-07T04:53:23;13.8;;;3.3;;
48891;SDS011;50130;52.150;5.236;2023-03-07T04:54:59;15.6;;;3.2;;
48891;SDS011;50130;52.150;5.236;2023-03-07T04:56:35;11.9;;;3.2;;
48891;SDS011;50130;52.150;5.236;2023-03-07T04:59:48;13.4;;;3.2;;
48891;SDS011;50130;52.150;5.236;2023-03-07T05:01:24;11.8;;;2.8;;
48891;SDS011;50130;52.150;5.236;2023-03-07T05:03:00;12.0;;;2.6;;
48891;SDS011;50130;52.150;5.236;2023-03-07T05:06:13;12.6;;;2.31;;
48891;SDS011;50130;52.150;5.236;2023-03-07T05:07:51;10.6;;;1.9;;
48891;SDS011;50130;52.150;5.236;2023-03-07T05:09:28;9.1;;;1.8;;
48891;SDS011;50130;52.150;5.236;2023-03-07T05:11:05;8.4;;;1.6;;
48891;SDS011;50130;52.150;5.236;2023-03-07T05:14:17;9.9;;;2.0;;
48891;SDS011;50130;52.150;5.236;2023-03-07T05:15:54;14.9;;;1.7;;
48891;SDS011;50130;52.150;5.236;2023-03-07T05:17:32;9.81;;;1.5;;
48891;SDS011;50130;52.150;5.236;2023-03-07T05:20:45;7.8;;;1.5;;
48891;SDS011;50130;52.150;5.236;2023-03-07T05:22:21;11.6;;;2.1;;
48891;SDS011;50130;52.150;5.236;2023-03-07T05:23:57;8.4;;;1.8;;
48891;SDS011;50130;52.150;5.236;2023-03-07T05:25:33;5.3;;;1.2;;
48891;SDS011;50130;52.150;5.236;2023-03-07T05:28:46;9.9;;;1.6;;
48891;SDS011;50130;52.150;5.236;2023-03-07T05:30:22;9.1;;;1.5;;
48891;SDS011;50130;52.150;5.236;2023-03-07T05:31:58;9.71;;;1.7;;
48891;SDS011;50130;52.150;5.236;2023-03-07T05:35:10;9.71;;;1.7;;
48891;SDS011;50130;52.150;5.236;2023-03-07T05:36:46;8.31;;;1.5;;
48891;SDS011;50130;52.150;5.236;2023-03-07T05:38:22;10.6;;;1.7;;
48891;SDS011;50130;52.150;5.236;2023-03-07T05:41:35;7.5;;;1.3;;
48891;SDS011;50130;52.150;5.236;2023-03-07T05:43:11;7.0;;;1.2;;
48891;SDS011;50130;52.150;5.236;2023-03-07T05:44:47;4.5;;;1.0;;
48891;SDS011;50130;52.150;5.236;2023-03-07T05:47:59;6.0;;;1.8;;
48891;SDS011;50130;52.150;5.236;2023-03-07T05:49:35;5.7;;;1.0;;
48891;SDS011;50130;52.150;5.236;2023-03-07T05:51:12;7.1;;;1.2;;
48891;SDS011;50130;52.150;5.236;2023-03-07T05:52:48;5.4;;;1.11;;
48891;SDS011;50130;52.150;5.236;2023-03-07T05:56:01;7.4;;;1.2;;
48891;SDS011;50130;52.150;5.236;2023-03-07T05:57:37;9.5;;;1.2;;
48891;SDS011;50130;52.150;5.236;2023-03-07T05:59:13;8.2;;;1.3;;
48891;SDS011;50130;52.150;5.236;2023-03-07T06:02:26;7.4;;;1.3;;
48891;SDS011;50130;52.150;5.236;2023-03-07T06:04:02;9.5;;;1.6;;
48891;SDS011;50130;52.150;5.236;2023-03-07T06:05:38;8.5;;;1.5;;
48891;SDS011;50130;52.150;5.236;2023-03-07T06:08:50;7.6;;;1.7;;
48891;SDS011;50130;52.150;5.236;2023-03-07T06:10:26;9.5;;;1.6;;
48891;SDS011;50130;52.150;5.236;2023-03-07T06:12:03;8.31;;;1.7;;
48891;SDS011;50130;52.150;5.236;2023-03-07T06:15:16;11.9;;;2.7;;
48891;SDS011;50130;52.150;5.236;2023-03-07T06:16:52;7.2;;;2.1;;
48891;SDS011;50130;52.150;5.236;2023-03-07T06:18:28;13.2;;;2.21;;
48891;SDS011;50130;52.150;5.236;2023-03-07T06:20:05;9.6;;;2.21;;
48891;SDS011;50130;52.150;5.236;2023-03-07T06:23:18;14.0;;;2.9;;
48891;SDS011;50130;52.150;5.236;2023-03-07T06:24:54;10.4;;;2.5;;
48891;SDS011;50130;52.150;5.236;2023-03-07T06:26:30;12.6;;;2.4;;
48891;SDS011;50130;52.150;5.236;2023-03-07T06:29:42;7.2;;;2.1;;
48891;SDS011;50130;52.150;5.236;2023-03-07T06:31:18;8.0;;;2.4;;
48891;SDS011;50130;52.150;5.236;2023-03-07T06:32:55;6.4;;;2.4;;
48891;SDS011;50130;52.150;5.236;2023-03-07T06:36:09;7.5;;;2.6;;
48891;SDS011;50130;52.150;5.236;2023-03-07T06:37:49;9.9;;;3.3;;
48891;SDS011;50130;52.150;5.236;2023-03-07T06:39:25;12.5;;;3.7;;
48891;SDS011;50130;52.150;5.236;2023-03-07T06:41:01;8.31;;;3.2;;
48891;SDS011;50130;52.150;5.236;2023-03-07T06:44:14;9.1;;;3.9;;
48891;SDS011;50130;52.150;5.236;2023-03-07T06:45:51;9.6;;;3.1;;
48891;SDS011;50130;52.150;5.236;2023-03-07T06:47:28;9.0;;;4.0;;
48891;SDS011;50130;52.150;5.236;2023-03-07T06:50:40;11.2;;;3.1;;
48891;SDS011;50130;52.150;5.236;2023-03-07T06:52:16;6.8;;;2.6;;
48891;SDS011;50130;52.150;5.236;2023-03-07T06:53:52;10.4;;;4.61;;
48891;SDS011;50130;52.150;5.236;2023-03-07T06:57:04;10.7;;;3.5;;
48891;SDS011;50130;52.150;5.236;2023-03-07T06:58:41;13.1;;;4.3;;
48891;SDS011;50130;52.150;5.236;2023-03-07T07:00:17;13.7;;;4.3;;
48891;SDS011;50130;52.150;5.236;2023-03-07T07:01:54;11.3;;;3.2;;
48891;SDS011;50130;52.150;5.236;2023-03-07T07:05:06;9.0;;;2.8;;
48891;SDS011;50130;52.150;5.236;2023-03-07T07:06:43;11.1;;;3.5;;
48891;SDS011;50130;52.150;5.236;2023-03-07T07:08:19;9.71;;;3.3;;
48891;SDS011;50130;52.150;5.236;2023-03-07T07:11:32;10.5;;;3.5;;
48891;SDS011;50130;52.150;5.236;2023-03-07T07:13:08;11.6;;;3.4;;
48891;SDS011;50130;52.150;5.236;2023-03-07T07:14:46;10.0;;;2.9;;
48891;SDS011;50130;52.150;5.236;2023-03-07T07:17:58;11.1;;;3.3;;
48891;SDS011;50130;52.150;5.236;2023-03-07T07:19:35;11.7;;;3.7;;
48891;SDS011;50130;52.150;5.236;2023-03-07T07:21:11;13.0;;;4.0;;
48891;SDS011;50130;52.150;5.236;2023-03-07T07:22:47;13.5;;;3.9;;
48891;SDS011;50130;52.150;5.236;2023-03-07T07:25:59;9.21;;;3.7;;
48891;SDS011;50130;52.150;5.236;2023-03-07T07:27:35;10.8;;;3.8;;
48891;SDS011;50130;52.150;5.236;2023-03-07T07:29:12;10.5;;;4.1;;
48891;SDS011;50130;52.150;5.236;2023-03-07T07:32:24;10.5;;;4.7;;
48891;SDS011;50130;52.150;5.236;2023-03-07T07:34:01;8.81;;;4.61;;
48891;SDS011;50130;52.150;5.236;2023-03-07T07:35:37;10.9;;;4.3;;
48891;SDS011;50130;52.150;5.236;2023-03-07T07:38:49;15.0;;;6.1;;
48891;SDS011;50130;52.150;5.236;2023-03-07T07:40:25;12.7;;;5.2;;
48891;SDS011;50130;52.150;5.236;2023-03-07T07:42:02;14.1;;;5.9;;
48891;SDS011;50130;52.150;5.236;2023-03-07T07:43:38;13.5;;;5.8;;
48891;SDS011;50130;52.150;5.236;2023-03-07T07:46:51;10.6;;;5.0;;
48891;SDS011;50130;52.150;5.236;2023-03-07T07:48:27;13.1;;;5.6;;
48891;SDS011;50130;52.150;5.236;2023-03-07T07:50:04;11.3;;;5.7;;
48891;SDS011;50130;52.150;5.236;2023-03-07T07:53:16;10.3;;;6.0;;
48891;SDS011;50130;52.150;5.236;2023-03-07T07:54:53;12.0;;;5.9;;
48891;SDS011;50130;52.150;5.236;2023-03-07T07:56:29;10.8;;;6.6;;
48891;SDS011;50130;52.150;5.236;2023-03-07T07:59:41;10.5;;;5.6;;
48891;SDS011;50130;52.150;5.236;2023-03-07T08:01:18;10.4;;;6.0;;
48891;SDS011;50130;52.150;5.236;2023-03-07T08:02:55;11.5;;;6.5;;
48891;SDS011;50130;52.150;5.236;2023-03-07T08:04:33;11.2;;;6.6;;
48891;SDS011;50130;52.150;5.236;2023-03-07T08:07:48;12.3;;;6.9;;
48891;SDS011;50130;52.150;5.236;2023-03-07T08:09:24;12.3;;;7.1;;
48891;SDS011;50130;52.150;5.236;2023-03-07T08:11:00;13.6;;;7.1;;
48891;SDS011;50130;52.150;5.236;2023-03-07T08:14:12;9.21;;;6.4;;
48891;SDS011;50130;52.150;5.236;2023-03-07T08:15:48;14.3;;;7.3;;
48891;SDS011;50130;52.150;5.236;2023-03-07T08:17:25;14.4;;;7.7;;
48891;SDS011;50130;52.150;5.236;2023-03-07T08:20:39;11.2;;;6.8;;
48891;SDS011;50130;52.150;5.236;2023-03-07T08:22:15;13.3;;;8.5;;
48891;SDS011;50130;52.150;5.236;2023-03-07T08:23:52;14.2;;;8.4;;
48891;SDS011;50130;52.150;5.236;2023-03-07T08:25:28;13.7;;;7.9;;
48891;SDS011;50130;52.150;5.236;2023-03-07T08:28:41;12.8;;;8.0;;
48891;SDS011;50130;52.150;5.236;2023-03-07T08:30:17;14.6;;;7.0;;
48891;SDS011;50130;52.150;5.236;2023-03-07T08:31:54;12.3;;;7.3;;
48891;SDS011;50130;52.150;5.236;2023-03-07T08:35:07;13.1;;;7.4;;
48891;SDS011;50130;52.150;5.236;2023-03-07T08:36:43;11.7;;;6.4;;
48891;SDS011;50130;52.150;5.236;2023-03-07T08:38:19;11.0;;;5.3;;
48891;SDS011;50130;52.150;5.236;2023-03-07T08:41:32;15.2;;;7.9;;
48891;SDS011;50130;52.150;5.236;2023-03-07T08:43:08;9.9;;;6.1;;
48891;SDS011;50130;52.150;5.236;2023-03-07T08:44:44;13.1;;;7.4;;
48891;SDS011;50130;52.150;5.236;2023-03-07T08:47:56;11.5;;;6.9;;
48891;SDS011;50130;52.150;5.236;2023-03-07T08:49:32;11.2;;;6.5;;
48891;SDS011;50130;52.150;5.236;2023-03-07T08:51:09;12.8;;;6.7;;
48891;SDS011;50130;52.150;5.236;2023-03-07T08:52:48;11.7;;;6.8;;
48891;SDS011;50130;52.150;5.236;2023-03-07T08:56:04;12.7;;;7.2;;
48891;SDS011;50130;52.150;5.236;2023-03-07T08:57:42;11.7;;;6.1;;
48891;SDS011;50130;52.150;5.236;2023-03-07T08:59:19;11.3;;;5.9;;
48891;SDS011;50130;52.150;5.236;2023-03-07T09:02:33;14.9;;;6.7;;
48891;SDS011;50130;52.150;5.236;2023-03-07T09:04:09;11.8;;;5.0;;
48891;SDS011;50130;52.150;5.236;2023-03-07T09:05:45;11.4;;;5.0;;
48891;SDS011;50130;52.150;5.236;2023-03-07T09:07:22;9.71;;;5.6;;
48891;SDS011;50130;52.150;5.236;2023-03-07T09:10:35;12.3;;;6.1;;
48891;SDS011;50130;52.150;5.236;2023-03-07T09:12:11;11.8;;;5.9;;
48891;SDS011;50130;52.150;5.236;2023-03-07T09:13:47;11.1;;;4.5;;
48891;SDS011;50130;52.150;5.236;2023-03-07T09:17:00;11.7;;;5.2;;
48891;SDS011;50130;52.150;5.236;2023-03-07T09:18:36;11.7;;;5.2;;
48891;SDS011;50130;52.150;5.236;2023-03-07T09:20:12;8.71;;;4.1;;
48891;SDS011;50130;52.150;5.236;2023-03-07T09:23:25;9.31;;;4.41;;
48891;SDS011;50130;52.150;5.236;2023-03-07T09:25:02;12.3;;;4.5;;
48891;SDS011;50130;52.150;5.236;2023-03-07T09:26:39;11.9;;;4.8;;
48891;SDS011;50130;52.150;5.236;2023-03-07T09:28:15;15.0;;;4.91;;
48891;SDS011;50130;52.150;5.236;2023-03-07T09:31:27;13.7;;;5.11;;
48891;SDS011;50130;52.150;5.236;2023-03-07T09:33:03;7.4;;;3.8;;
48891;SDS011;50130;52.150;5.236;2023-03-07T09:34:39;8.2;;;4.0;;
48891;SDS011;50130;52.150;5.236;2023-03-07T09:37:53;9.1;;;4.5;;
48891;SDS011;50130;52.150;5.236;2023-03-07T09:39:29;9.4;;;3.2;;
48891;SDS011;50130;52.150;5.236;2023-03-07T09:41:13;10.5;;;3.7;;
48891;SDS011;50130;52.150;5.236;2023-03-07T09:43:16;10.8;;;4.5;;
48891;SDS011;50130;52.150;5.236;2023-03-07T09:47:19;11.2;;;3.9;;
48891;SDS011;50130;52.150;5.236;2023-03-07T09:49:16;11.1;;;4.5;;
48891;SDS011;50130;52.150;5.236;2023-03-07T09:52:36;8.71;;;3.3;;
48891;SDS011;50130;52.150;5.236;2023-03-07T09:54:15;11.0;;;4.2;;
48891;SDS011;50130;52.150;5.236;2023-03-07T09:55:55;11.1;;;3.9;;
48891;SDS011;50130;52.150;5.236;2023-03-07T09:57:36;10.1;;;4.2;;
48891;SDS011;50130;52.150;5.236;2023-03-07T10:01:08;12.1;;;3.6;;
48891;SDS011;50130;52.150;5.236;2023-03-07T10:02:49;9.31;;;3.8;;
48891;SDS011;50130;52.150;5.236;2023-03-07T10:04:33;8.0;;;3.7;;
48891;SDS011;50130;52.150;5.236;2023-03-07T10:06:21;9.31;;;4.1;;
48891;SDS011;50130;52.150;5.236;2023-03-07T10:08:02;11.6;;;3.9;;
48891;SDS011;50130;52.150;5.236;2023-03-07T10:11:20;8.6;;;4.61;;
48891;SDS011;50130;52.150;5.236;2023-03-07T10:13:12;11.4;;;4.61;;
48891;SDS011;50130;52.150;5.236;2023-03-07T10:15:04;12.5;;;4.3;;
48891;SDS011;50130;52.150;5.236;2023-03-07T10:16:54;10.21;;;3.5;;
48891;SDS011;50130;52.150;5.236;2023-03-07T10:18:45;10.1;;;2.5;;
48891;SDS011;50130;52.150;5.236;2023-03-07T10:20:35;8.9;;;2.4;;
48891;SDS011;50130;52.150;5.236;2023-03-07T10:24:14;7.5;;;1.8;;
48891;SDS011;50130;52.150;5.236;2023-03-07T10:26:07;9.1;;;2.0;;
48891;SDS011;50130;52.150;5.236;2023-03-07T10:27:46;11.7;;;2.1;;
48891;SDS011;50130;52.150;5.236;2023-03-07T10:29:27;7.7;;;1.9;;
48891;SDS011;50130;52.150;5.236;2023-03-07T10:31:14;12.9;;;2.5;;
48891;SDS011;50130;52.150;5.236;2023-03-07T10:34:31;9.9;;;1.5;;
48891;SDS011;50130;52.150;5.236;2023-03-07T10:36:09;10.3;;;1.7;;
48891;SDS011;50130;52.150;5.236;2023-03-07T10:37:52;8.2;;;1.7;;
48891;SDS011;50130;52.150;5.236;2023-03-07T10:39:33;9.31;;;2.1;;
48891;SDS011;50130;52.150;5.236;2023-03-07T10:42:56;10.4;;;2.1;;
48891;SDS011;50130;52.150;5.236;2023-03-07T10:44:34;11.5;;;2.0;;
48891;SDS011;50130;52.150;5.236;2023-03-07T10:46:12;8.2;;;1.9;;
48891;SDS011;50130;52.150;5.236;2023-03-07T10:47:52;9.0;;;2.5;;
48891;SDS011;50130;52.150;5.236;2023-03-07T10:51:11;10.5;;;2.1;;
48891;SDS011;50130;52.150;5.236;2023-03-07T10:53:08;10.21;;;2.4;;
48891;SDS011;50130;52.150;5.236;2023-03-07T10:55:27;10.7;;;2.21;;
48891;SDS011;50130;52.150;5.236;2023-03-07T10:57:08;7.2;;;1.4;;
48891;SDS011;50130;52.150;5.236;2023-03-07T10:59:02;6.7;;;1.5;;
48891;SDS011;50130;52.150;5.236;2023-03-07T11:00:41;8.1;;;1.7;;
48891;SDS011;50130;52.150;5.236;2023-03-07T11:04:18;7.9;;;1.9;;
48891;SDS011;50130;52.150;5.236;2023-03-07T11:05:57;7.8;;;1.8;;
48891;SDS011;50130;52.150;5.236;2023-03-07T11:07:34;8.0;;;1.5;;
48891;SDS011;50130;52.150;5.236;2023-03-07T11:09:15;4.7;;;0.9;;
48891;SDS011;50130;52.150;5.236;2023-03-07T11:11:01;6.6;;;1.5;;
48891;SDS011;50130;52.150;5.236;2023-03-07T11:14:20;4.7;;;1.3;;
48891;SDS011;50130;52.150;5.236;2023-03-07T11:16:15;4.3;;;1.4;;
48891;SDS011;50130;52.150;5.236;2023-03-07T11:17:55;5.0;;;1.3;;
48891;SDS011;50130;52.150;5.236;2023-03-07T11:19:32;5.5;;;1.4;;
48891;SDS011;50130;52.150;5.236;2023-03-07T11:21:30;7.5;;;1.5;;
48891;SDS011;50130;52.150;5.236;2023-03-07T11:24:56;4.7;;;1.6;;
48891;SDS011;50130;52.150;5.236;2023-03-07T11:26:37;6.7;;;1.6;;
48891;SDS011;50130;52.150;5.236;2023-03-07T11:28:23;8.9;;;1.5;;
48891;SDS011;50130;52.150;5.236;2023-03-07T11:30:23;6.1;;;1.4;;
48891;SDS011;50130;52.150;5.236;2023-03-07T11:32:08;4.91;;;1.11;;
48891;SDS011;50130;52.150;5.236;2023-03-07T11:33:50;7.0;;;1.4;;
48891;SDS011;50130;52.150;5.236;2023-03-07T11:38:17;8.71;;;1.4;;
48891;SDS011;50130;52.150;5.236;2023-03-07T11:40:10;7.5;;;1.2;;
48891;SDS011;50130;52.150;5.236;2023-03-07T11:43:41;6.8;;;1.2;;
48891;SDS011;50130;52.150;5.236;2023-03-07T11:45:34;10.0;;;1.6;;
48891;SDS011;50130;52.150;5.236;2023-03-07T11:47:25;6.2;;;1.3;;
48891;SDS011;50130;52.150;5.236;2023-03-07T11:49:15;8.2;;;1.3;;
48891;SDS011;50130;52.150;5.236;2023-03-07T11:51:05;5.8;;;1.0;;
48891;SDS011;50130;52.150;5.236;2023-03-07T11:53:01;8.2;;;1.6;;
48891;SDS011;50130;52.150;5.236;2023-03-07T11:55:56;8.31;;;1.4;;
48891;SDS011;50130;52.150;5.236;2023-03-07T11:57:51;5.6;;;1.2;;
48891;SDS011;50130;52.150;5.236;2023-03-07T11:59:49;5.0;;;1.5;;
48891;SDS011;50130;52.150;5.236;2023-03-07T12:02:05;8.31;;;1.6;;
48891;SDS011;50130;52.150;5.236;2023-03-07T12:07:46;8.6;;;1.6;;
48891;SDS011;50130;52.150;5.236;2023-03-07T12:09:40;4.91;;;0.9;;
48891;SDS011;50130;52.150;5.236;2023-03-07T12:11:28;4.0;;;0.9;;
48891;SDS011;50130;52.150;5.236;2023-03-07T12:15:20;4.5;;;0.9;;
48891;SDS011;50130;52.150;5.236;2023-03-07T12:17:17;3.3;;;0.8;;
48891;SDS011;50130;52.150;5.236;2023-03-07T12:19:11;3.2;;;0.8;;
48891;SDS011;50130;52.150;5.236;2023-03-07T12:21:33;6.1;;;0.9;;
48891;SDS011;50130;52.150;5.236;2023-03-07T12:23:31;5.3;;;0.9;;
48891;SDS011;50130;52.150;5.236;2023-03-07T12:25:17;4.41;;;0.8;;
48891;SDS011;50130;52.150;5.236;2023-03-07T12:26:58;7.0;;;1.11;;
48891;SDS011;50130;52.150;5.236;2023-03-07T12:28:40;6.1;;;1.0;;
48891;SDS011;50130;52.150;5.236;2023-03-07T12:30:21;5.3;;;0.9;;
48891;SDS011;50130;52.150;5.236;2023-03-07T12:33:49;5.8;;;1.0;;
48891;SDS011;50130;52.150;5.236;2023-03-07T12:35:35;2.8;;;0.8;;
48891;SDS011;50130;52.150;5.236;2023-03-07T12:37:19;4.61;;;1.0;;
48891;SDS011;50130;52.150;5.236;2023-03-07T12:39:02;5.6;;;1.11;;
48891;SDS011;50130;52.150;5.236;2023-03-07T12:40:50;3.2;;;1.0;;
48891;SDS011;50130;52.150;5.236;2023-03-07T12:44:18;7.4;;;1.3;;
48891;SDS011;50130;52.150;5.236;2023-03-07T12:46:10;4.8;;;1.11;;
48891;SDS011;50130;52.150;5.236;2023-03-07T12:47:55;8.5;;;2.4;;
48891;SDS011;50130;52.150;5.236;2023-03-07T12:49:40;5.11;;;1.2;;
48891;SDS011;50130;52.150;5.236;2023-03-07T12:51:25;6.8;;;1.5;;
48891;SDS011;50130;52.150;5.236;2023-03-07T12:54:54;4.7;;;1.11;;
48891;SDS011;50130;52.150;5.236;2023-03-07T12:56:38;6.6;;;1.6;;
48891;SDS011;50130;52.150;5.236;2023-03-07T12:58:28;6.3;;;1.2;;
48891;SDS011;50130;52.150;5.236;2023-03-07T13:00:12;7.1;;;1.5;;